Time;durP1;ratioP1;P1;durP2;ratioP2;P2;SDS_P1;SDS_P2;PMS_P1;PMS_P2;Temp;Humidity;BMP_temperature;BMP_pressure;BME280_temperature;BME280_humidity;BME280_pressure;Samples;Min_cycle;Max_cycle;Signal;HPM_P1;HPM_P2
2021/04/21 00:01:00;;;;;;;4.13;2.30;;;24.00;38.90;;;;;;5073832;28;20036;-49
2021/04/21 00:03:26;;;;;;;2.88;2.10;;;24.00;38.90;;;;;;5081766;28;20032;-48
2021/04/21 00:05:52;;;;;;;3.63;2.17;;;24.00;38.90;;;;;;5084466;28;20032;-51
2021/04/21 00:08:20;;;;;;;3.33;2.25;;;24.00;38.90;;;;;;5082647;28;20036;-56
2021/04/21 00:10:46;;;;;;;3.20;2.22;;;24.00;38.90;;;;;;5083557;28;20051;-47
2021/04/21 00:13:12;;;;;;;3.75;2.30;;;24.00;38.90;;;;;;5087754;28;20031;-56
2021/04/21 00:15:38;;;;;;;3.03;2.22;;;24.00;38.90;;;;;;5087983;28;20036;-52
2021/04/21 00:18:06;;;;;;;4.00;2.60;;;24.00;38.90;;;;;;5072087;28;20165;-53
2021/04/21 00:20:33;;;;;;;3.42;2.30;;;24.00;39.40;;;;;;5081941;28;20210;-54
2021/04/21 00:23:03;;;;;;;2.95;2.15;;;23.90;38.90;;;;;;5067931;28;20023;-55
2021/04/21 00:25:32;;;;;;;3.63;2.30;;;23.90;38.90;;;;;;5078837;28;20028;-50
2021/04/21 00:27:59;;;;;;;3.30;2.30;;;23.90;38.80;;;;;;5088982;28;20028;-50
2021/04/21 00:30:27;;;;;;;3.00;2.08;;;23.90;38.80;;;;;;5085842;28;20039;-54
2021/04/21 00:32:54;;;;;;;2.80;2.10;;;23.90;38.80;;;;;;5079485;28;20081;-49
2021/04/21 00:35:25;;;;;;;3.03;2.20;;;23.90;38.80;;;;;;5073733;28;20041;-54
2021/04/21 00:37:56;;;;;;;3.00;2.20;;;23.90;38.90;;;;;;5059971;28;20082;-51
2021/04/21 00:40:29;;;;;;;3.53;2.13;;;23.90;38.80;;;;;;5080280;28;20458;-49
2021/04/21 00:43:03;;;;;;;4.38;2.28;;;23.90;38.90;;;;;;5083860;28;20132;-52
2021/04/21 00:45:38;;;;;;;3.00;2.20;;;23.90;38.90;;;;;;5082621;28;20168;-53
2021/04/21 00:48:25;;;;;;;3.28;2.35;;;23.90;38.90;;;;;;5082477;28;20134;-54
2021/04/21 00:50:56;;;;;;;3.08;2.08;;;23.90;38.80;;;;;;5081695;28;20776;-53
2021/04/21 00:53:37;;;;;;;2.83;2.08;;;23.90;38.80;;;;;;5081315;28;20067;-50
2021/04/21 00:56:15;;;;;;;2.95;2.25;;;23.90;38.80;;;;;;5075399;28;20642;-53
2021/04/21 00:58:55;;;;;;;2.67;1.85;;;23.90;38.80;;;;;;5075790;28;20457;-51
2021/04/21 01:01:22;;;;;;;3.08;2.20;;;23.80;38.80;;;;;;5074315;28;20447;-52
2021/04/21 01:03:51;;;;;;;2.72;2.03;;;23.80;38.90;;;;;;5070066;28;20039;-56
2021/04/21 01:06:26;;;;;;;2.80;2.05;;;23.80;38.80;;;;;;5083449;28;20020;-54
2021/04/21 01:08:57;;;;;;;2.92;2.25;;;23.80;38.90;;;;;;5083167;28;20055;-54
2021/04/21 01:11:30;;;;;;;2.90;2.08;;;23.80;38.90;;;;;;5082010;28;20036;-52
2021/04/21 01:14:00;;;;;;;2.67;2.10;;;23.80;38.90;;;;;;5084712;28;20508;-49
2021/04/21 01:16:29;;;;;;;2.58;1.92;;;23.70;38.80;;;;;;5081542;28;20032;-55
2021/04/21 01:18:58;;;;;;;3.15;2.28;;;23.80;38.90;;;;;;5083347;28;20039;-53
2021/04/21 01:21:33;;;;;;;2.88;2.20;;;23.80;38.90;;;;;;5081142;28;20043;-53
2021/04/21 01:24:02;;;;;;;2.55;1.90;;;23.80;38.90;;;;;;5083089;28;20602;-55
2021/04/21 01:26:54;;;;;;;3.17;2.05;;;23.80;38.90;;;;;;5082765;28;20039;-56
2021/04/21 01:29:33;;;;;;;3.20;2.10;;;23.80;38.90;;;;;;5060908;28;20554;-57
2021/04/21 01:32:04;;;;;;;3.22;2.17;;;23.70;38.80;;;;;;5075502;28;20055;-55
2021/04/21 01:34:33;;;;;;;2.67;2.05;;;23.70;38.80;;;;;;5082643;28;20070;-51
2021/04/21 01:37:01;;;;;;;2.80;1.98;;;23.70;38.80;;;;;;5082205;28;20032;-54
2021/04/21 01:39:28;;;;;;;2.78;2.08;;;23.70;38.80;;;;;;5082961;28;20094;-52
2021/04/21 01:41:57;;;;;;;2.60;1.98;;;23.70;38.80;;;;;;5081175;28;20550;-56
2021/04/21 01:44:29;;;;;;;3.15;2.00;;;23.70;38.80;;;;;;5080389;28;20047;-55
2021/04/21 01:47:03;;;;;;;2.85;2.05;;;23.70;38.80;;;;;;5081981;28;20043;-49
2021/04/21 01:49:35;;;;;;;2.90;1.80;;;23.70;38.80;;;;;;5082092;28;20451;-49
2021/04/21 01:52:21;;;;;;;2.33;1.80;;;23.70;38.80;;;;;;5081881;28;20036;-52
2021/04/21 01:54:50;;;;;;;2.83;2.08;;;23.70;38.90;;;;;;5081269;28;20103;-49
2021/04/21 01:57:44;;;;;;;2.40;1.90;;;23.70;38.80;;;;;;5083365;28;20036;-49
2021/04/21 02:00:28;;;;;;;3.38;1.90;;;23.70;38.90;;;;;;5062185;28;20049;-51
2021/04/21 02:03:09;;;;;;;3.05;2.08;;;23.70;38.90;;;;;;5079765;28;20040;-54
2021/04/21 02:06:29;;;;;;;2.85;2.00;;;23.70;38.80;;;;;;5085423;28;20032;-48
2021/04/21 02:09:09;;;;;;;2.40;1.90;;;23.70;38.90;;;;;;5064098;28;20072;-53
2021/04/21 02:11:38;;;;;;;2.65;1.90;;;23.70;38.80;;;;;;5085719;28;20111;-52
2021/04/21 02:14:04;;;;;;;3.22;2.00;;;23.60;38.80;;;;;;5083174;28;20081;-55
2021/04/21 02:16:58;;;;;;;2.40;1.90;;;23.60;38.80;;;;;;5078733;28;20024;-51
2021/04/21 02:19:32;;;;;;;2.78;2.00;;;23.60;39.40;;;;;;5086269;28;20024;-53
2021/04/21 02:22:22;;;;;;;2.53;1.80;;;23.60;38.80;;;;;;5081622;28;20355;-55
2021/04/21 02:24:58;;;;;;;3.38;1.83;;;23.60;38.80;;;;;;5083381;28;20064;-56
2021/04/21 02:27:39;;;;;;;3.05;2.10;;;23.60;38.80;;;;;;5084937;28;20028;-52
2021/04/21 02:30:38;;;;;;;3.28;2.20;;;23.60;39.40;;;;;;5078833;28;20031;-53
2021/04/21 02:33:21;;;;;;;2.67;1.80;;;23.60;38.90;;;;;;5085648;28;20149;-52
2021/04/21 02:35:58;;;;;;;2.83;1.90;;;23.60;38.90;;;;;;5083680;28;20035;-54
2021/04/21 02:38:49;;;;;;;2.83;1.98;;;23.60;38.90;;;;;;5059217;28;20064;-51
2021/04/21 02:41:37;;;;;;;3.08;1.90;;;23.60;38.90;;;;;;5079692;28;20025;-52
2021/04/21 02:44:21;;;;;;;2.58;1.73;;;23.60;38.90;;;;;;5081021;28;20104;-56
2021/04/21 02:47:11;;;;;;;2.83;1.60;;;23.60;38.90;;;;;;5084268;28;20142;-54
2021/04/21 02:50:09;;;;;;;3.00;2.10;;;23.60;38.90;;;;;;5085781;28;20055;-51
2021/04/21 02:53:00;;;;;;;3.22;2.05;;;23.50;38.80;;;;;;5072879;28;20083;-50
2021/04/21 02:55:59;;;;;;;2.50;1.90;;;23.50;38.80;;;;;;5069917;28;20047;-51
2021/04/21 02:58:30;;;;;;;2.78;1.80;;;23.50;38.90;;;;;;5085377;28;20528;-52
2021/04/21 03:01:09;;;;;;;2.38;1.77;;;23.50;38.80;;;;;;5072099;28;20847;-50
2021/04/21 03:04:01;;;;;;;2.60;1.92;;;23.50;38.80;;;;;;5071350;28;20110;-51
2021/04/21 03:06:31;;;;;;;2.65;1.92;;;23.50;38.80;;;;;;5068223;28;20027;-52
2021/04/21 03:09:04;;;;;;;2.42;1.85;;;23.50;38.80;;;;;;5078034;28;20059;-54
2021/04/21 03:11:31;;;;;;;2.70;2.00;;;23.50;38.90;;;;;;5076107;28;20032;-50
2021/04/21 03:14:14;;;;;;;2.30;1.70;;;23.50;38.90;;;;;;5080041;28;20249;-50
2021/04/21 03:16:44;;;;;;;2.78;1.83;;;23.50;38.90;;;;;;5046451;28;20033;-52
2021/04/21 03:19:13;;;;;;;2.58;1.90;;;23.50;38.90;;;;;;5069454;28;20111;-51
2021/04/21 03:21:52;;;;;;;2.78;1.90;;;23.50;38.90;;;;;;5083670;28;20032;-51
2021/04/21 03:24:23;;;;;;;2.45;1.90;;;23.50;38.90;;;;;;5084857;28;20038;-53
2021/04/21 03:26:51;;;;;;;2.90;2.05;;;23.40;38.80;;;;;;5084671;28;20042;-54
2021/04/21 03:29:36;;;;;;;2.38;1.85;;;23.40;38.80;;;;;;5085369;28;20038;-57
2021/04/21 03:32:07;;;;;;;2.40;1.70;;;23.50;38.90;;;;;;5082690;28;20169;-53
2021/04/21 03:34:34;;;;;;;2.33;1.70;;;23.40;39.40;;;;;;5084256;28;20036;-56
2021/04/21 03:37:00;;;;;;;1.95;1.60;;;23.40;38.80;;;;;;5085340;28;20028;-52
2021/04/21 03:39:26;;;;;;;2.13;1.60;;;23.40;38.80;;;;;;5084417;28;20058;-53
2021/04/21 03:41:53;;;;;;;2.40;1.60;;;23.40;39.40;;;;;;5085080;28;20028;-52
2021/04/21 03:44:18;;;;;;;2.33;1.65;;;23.40;38.80;;;;;;5084113;28;20036;-49
2021/04/21 03:46:44;;;;;;;2.20;1.70;;;23.40;38.80;;;;;;5084118;28;20031;-49
2021/04/21 03:49:11;;;;;;;2.63;1.75;;;23.40;38.80;;;;;;5085329;28;20111;-51
2021/04/21 03:51:37;;;;;;;2.28;1.70;;;23.40;38.80;;;;;;5079947;28;20097;-59
2021/04/21 03:54:04;;;;;;;3.00;2.00;;;23.40;38.80;;;;;;5083149;28;20055;-53
2021/04/21 03:56:32;;;;;;;2.38;1.73;;;23.40;38.80;;;;;;5075223;28;20048;-49
2021/04/21 03:58:59;;;;;;;2.40;1.80;;;23.40;38.80;;;;;;5079900;28;20028;-54
2021/04/21 04:01:25;;;;;;;2.10;1.58;;;23.40;38.80;;;;;;5080644;28;20120;-54
2021/04/21 04:04:04;;;;;;;2.80;1.80;;;23.40;38.90;;;;;;5075128;28;20366;-53
2021/04/21 04:06:37;;;;;;;2.33;1.70;;;23.40;38.90;;;;;;5077964;28;20028;-49
2021/04/21 04:09:08;;;;;;;2.30;1.63;;;23.40;38.90;;;;;;5077125;28;20764;-52
2021/04/21 04:11:46;;;;;;;2.25;1.70;;;23.30;38.80;;;;;;5077698;28;20028;-51
2021/04/21 04:14:22;;;;;;;2.40;1.65;;;23.40;38.90;;;;;;5077631;28;20036;-51
2021/04/21 04:16:52;;;;;;;2.15;1.67;;;23.30;38.90;;;;;;5079238;28;20036;-51
2021/04/21 04:19:19;;;;;;;2.20;1.60;;;23.30;38.90;;;;;;5077898;28;20036;-51
2021/04/21 04:21:51;;;;;;;2.17;1.58;;;23.30;38.90;;;;;;5077832;28;20028;-49
2021/04/21 04:24:21;;;;;;;2.60;1.85;;;23.30;39.40;;;;;;5077280;28;20028;-54
2021/04/21 04:26:48;;;;;;;2.30;1.70;;;23.30;38.90;;;;;;5079011;28;20024;-55
2021/04/21 04:29:13;;;;;;;2.30;1.58;;;23.30;38.90;;;;;;5080340;28;20048;-51
2021/04/21 04:31:40;;;;;;;2.60;1.80;;;23.30;38.90;;;;;;5080597;28;20406;-55
2021/04/21 04:34:08;;;;;;;2.10;1.52;;;23.30;38.90;;;;;;5082977;28;20466;-50
2021/04/21 04:36:36;;;;;;;2.10;1.40;;;23.30;38.90;;;;;;5078520;28;20040;-54
2021/04/21 04:39:05;;;;;;;2.20;1.67;;;23.30;38.90;;;;;;5063484;28;20039;-50
2021/04/21 04:41:31;;;;;;;2.10;1.50;;;23.30;38.90;;;;;;5081107;28;20067;-52
2021/04/21 04:43:57;;;;;;;1.75;1.40;;;23.30;38.90;;;;;;5082878;28;20078;-51
2021/04/21 04:46:27;;;;;;;2.58;1.80;;;23.30;38.90;;;;;;5083081;28;20108;-52
2021/04/21 04:49:01;;;;;;;2.35;1.67;;;23.30;39.00;;;;;;5082908;28;20918;-51
2021/04/21 04:51:31;;;;;;;2.35;1.70;;;23.20;38.90;;;;;;5083438;28;20757;-46
2021/04/21 04:53:57;;;;;;;2.20;1.50;;;23.30;38.90;;;;;;5080096;28;20032;-53
2021/04/21 04:56:23;;;;;;;2.40;1.70;;;23.30;38.90;;;;;;5084118;28;20040;-47
2021/04/21 04:58:53;;;;;;;2.08;1.50;;;23.30;39.00;;;;;;5084125;28;20040;-56
2021/04/21 05:01:18;;;;;;;;;;;23.20;38.90;;;;;;5084152;28;20063;-49
2021/04/21 05:03:56;;;;;;;2.20;1.70;;;23.20;38.90;;;;;;5071209;28;19943;-51
2021/04/21 05:06:34;;;;;;;2.25;1.52;;;23.20;39.00;;;;;;5064523;28;20031;-55
2021/04/21 05:09:04;;;;;;;2.58;1.52;;;23.20;39.00;;;;;;5079746;28;20035;-54
2021/04/21 05:11:33;;;;;;;2.40;1.40;;;23.20;39.00;;;;;;5083845;28;20637;-48
2021/04/21 05:14:04;;;;;;;2.30;1.77;;;23.20;39.00;;;;;;5068112;28;20459;-49
2021/04/21 05:16:56;;;;;;;2.20;1.60;;;23.20;39.00;;;;;;5082544;28;20428;-53
2021/04/21 05:20:03;;;;;;;2.50;1.90;;;23.20;39.00;;;;;;5051490;28;20044;-52
2021/04/21 05:22:51;;;;;;;2.08;1.50;;;23.20;39.00;;;;;;5067308;28;20459;-51
2021/04/21 05:25:35;;;;;;;1.90;1.50;;;23.10;38.90;;;;;;5077046;28;20029;-50
2021/04/21 05:28:00;;;;;;;2.22;1.60;;;23.20;39.00;;;;;;5082915;28;20573;-53
2021/04/21 05:31:05;;;;;;;2.53;1.60;;;23.10;38.90;;;;;;5081061;28;20031;-51
2021/04/21 05:33:55;;;;;;;2.22;1.60;;;23.10;39.00;;;;;;5078448;28;20036;-52
2021/04/21 05:36:39;;;;;;;2.05;1.58;;;23.10;39.00;;;;;;5082255;28;20024;-52
2021/04/21 05:39:26;;;;;;;2.10;1.50;;;23.10;39.00;;;;;;5085078;28;20036;-57
2021/04/21 05:42:30;;;;;;;2.05;1.60;;;23.10;39.00;;;;;;5087801;28;20605;-49
2021/04/21 05:45:46;;;;;;;2.35;1.67;;;23.10;39.00;;;;;;5066116;28;20037;-53
2021/04/21 05:48:26;;;;;;;2.08;1.40;;;23.10;39.00;;;;;;5084658;28;20072;-53
2021/04/21 05:51:04;;;;;;;;;;;23.10;39.10;;;;;;5086400;28;20586;-53
2021/04/21 05:54:04;;;;;;;1.85;1.33;;;23.10;39.10;;;;;;5084636;28;19911;-52
2021/04/21 05:57:03;;;;;;;2.35;1.60;;;23.10;39.10;;;;;;5067331;28;20161;-46
2021/04/21 05:59:38;;;;;;;;;;;23.10;39.10;;;;;;5081062;28;20028;-49
2021/04/21 06:02:05;;;;;;;2.17;1.50;;;23.10;39.10;;;;;;5076142;28;19931;-53
2021/04/21 06:04:31;;;;;;;2.35;1.60;;;23.10;39.10;;;;;;5087148;28;20126;-52
2021/04/21 06:07:12;;;;;;;2.47;1.70;;;23.10;39.10;;;;;;5092401;28;20096;-56
2021/04/21 06:09:39;;;;;;;3.10;1.70;;;23.20;39.00;;;;;;5081747;28;20043;-47
2021/04/21 06:12:14;;;;;;;2.38;1.67;;;23.20;39.00;;;;;;5077251;28;20143;-49
2021/04/21 06:14:42;;;;;;;2.65;1.90;;;23.30;39.00;;;;;;5086850;28;20039;-51
2021/04/21 06:17:09;;;;;;;2.83;1.77;;;23.30;39.00;;;;;;5086245;28;20504;-53
2021/04/21 06:19:34;;;;;;;3.40;1.85;;;23.30;39.00;;;;;;5083946;28;20051;-55
2021/04/21 06:22:00;;;;;;;3.00;1.70;;;23.30;39.00;;;;;;5083053;28;20467;-51
2021/04/21 06:24:29;;;;;;;2.17;1.60;;;23.30;38.90;;;;;;5075200;28;20059;-53
2021/04/21 06:27:11;;;;;;;3.33;1.90;;;23.30;38.90;;;;;;5084893;28;20027;-49
2021/04/21 06:29:38;;;;;;;2.63;1.90;;;23.40;38.90;;;;;;5086500;28;20947;-53
2021/04/21 06:32:06;;;;;;;4.43;1.65;;;23.40;38.90;;;;;;5083680;28;20127;-51
2021/04/21 06:34:32;;;;;;;2.53;1.80;;;23.40;38.90;;;;;;5081961;28;20034;-52
2021/04/21 06:36:59;;;;;;;2.60;1.70;;;23.40;38.80;;;;;;5086310;28;20093;-55
2021/04/21 06:39:28;;;;;;;3.58;1.67;;;23.40;38.80;;;;;;5085573;28;20024;-50
2021/04/21 06:42:03;;;;;;;3.65;2.05;;;23.40;38.80;;;;;;5086729;28;20020;-49
2021/04/21 06:44:42;;;;;;;3.20;1.80;;;23.40;38.80;;;;;;5084600;28;20123;-51
2021/04/21 06:47:12;;;;;;;2.63;1.70;;;23.50;38.90;;;;;;5088584;28;20047;-55
2021/04/21 06:49:37;;;;;;;3.15;1.80;;;23.50;38.80;;;;;;5083347;28;20119;-53
2021/04/21 06:52:14;;;;;;;3.63;1.80;;;23.50;38.80;;;;;;5087900;28;20091;-48
2021/04/21 06:54:40;;;;;;;4.40;2.00;;;23.50;38.80;;;;;;5085506;28;20031;-53
2021/04/21 06:57:06;;;;;;;2.80;1.80;;;23.60;38.80;;;;;;5065933;28;20033;-47
2021/04/21 06:59:32;;;;;;;2.60;1.80;;;23.60;38.80;;;;;;5071039;28;20468;-50
2021/04/21 07:01:57;;;;;;;2.95;1.80;;;23.60;38.80;;;;;;5076077;28;20093;-57
2021/04/21 07:04:23;;;;;;;2.72;1.70;;;23.60;38.70;;;;;;5087706;28;20105;-56
2021/04/21 07:06:49;;;;;;;2.80;1.60;;;23.60;38.70;;;;;;5089432;28;20210;-53
2021/04/21 07:09:17;;;;;;;5.35;1.80;;;23.60;38.70;;;;;;5080076;28;20042;-53
2021/04/21 07:11:44;;;;;;;2.72;1.60;;;23.60;38.60;;;;;;5088852;28;20042;-52
2021/04/21 07:14:19;;;;;;;2.92;1.60;;;23.70;38.70;;;;;;5087675;28;20546;-49
2021/04/21 07:16:44;;;;;;;2.60;2.03;;;23.70;38.70;;;;;;5090857;28;20032;-51
2021/04/21 07:19:13;;;;;;;2.58;1.70;;;23.70;38.60;;;;;;5084701;28;20020;-49
2021/04/21 07:21:40;;;;;;;2.35;1.70;;;23.70;38.70;;;;;;5086143;28;20148;-51
2021/04/21 07:24:09;;;;;;;2.13;1.58;;;23.70;38.70;;;;;;5090327;28;20032;-49
2021/04/21 07:26:44;;;;;;;2.33;1.70;;;23.70;38.80;;;;;;5092012;28;20633;-52
2021/04/21 07:29:21;;;;;;;3.38;1.75;;;23.70;38.70;;;;;;5090532;28;20494;-54
2021/04/21 07:31:47;;;;;;;2.80;1.70;;;23.70;38.60;;;;;;5087811;28;20085;-50
2021/04/21 07:34:14;;;;;;;2.00;1.70;;;23.80;38.60;;;;;;5085191;28;20074;-53
2021/04/21 07:36:47;;;;;;;3.55;1.80;;;23.80;38.60;;;;;;5090473;28;20031;-46
2021/04/21 07:39:13;;;;;;;2.30;1.70;;;23.80;38.60;;;;;;5066638;28;20047;-56
2021/04/21 07:41:43;;;;;;;2.45;1.60;;;23.80;38.60;;;;;;5086174;28;20027;-48
2021/04/21 07:44:33;;;;;;;3.97;1.92;;;23.80;38.60;;;;;;5085389;28;20051;-53
2021/04/21 07:47:11;;;;;;;2.30;1.55;;;23.90;38.60;;;;;;5071158;28;20061;-48
2021/04/21 07:49:39;;;;;;;2.80;1.67;;;23.90;38.50;;;;;;5085263;28;20028;-53
2021/04/21 07:52:06;;;;;;;2.40;1.60;;;23.90;38.50;;;;;;5078190;28;20024;-49
2021/04/21 07:54:33;;;;;;;2.72;1.60;;;23.90;38.50;;;;;;5072016;28;20106;-48
2021/04/21 07:57:09;;;;;;;3.00;1.63;;;24.00;39.10;;;;;;5079384;28;20047;-53
2021/04/21 07:59:39;;;;;;;2.45;1.70;;;23.90;38.50;;;;;;5084080;28;20358;-53
2021/04/21 08:02:17;;;;;;;3.72;1.70;;;24.00;38.50;;;;;;5078205;28;20448;-49
2021/04/21 08:04:51;;;;;;;3.05;1.83;;;24.00;38.50;;;;;;5077770;28;20084;-57
2021/04/21 08:07:30;;;;;;;2.25;1.52;;;24.10;38.60;;;;;;5083928;28;20085;-49
2021/04/21 08:09:56;;;;;;;;;;;24.10;38.50;;;;;;5071475;28;20120;-52
2021/04/21 08:12:25;;;;;;;2.47;1.80;;;24.10;38.60;;;;;;5085041;28;19912;-56
2021/04/21 08:14:59;;;;;;;2.85;1.73;;;24.10;38.60;;;;;;5082787;28;20031;-55
2021/04/21 08:17:25;;;;;;;3.10;1.80;;;24.10;38.50;;;;;;5083559;28;20028;-56
2021/04/21 08:19:59;;;;;;;2.75;1.92;;;24.10;38.50;;;;;;5086021;28;20123;-55
2021/04/21 08:22:27;;;;;;;2.55;1.60;;;24.10;38.70;;;;;;5082507;28;20118;-52
2021/04/21 08:24:55;;;;;;;2.97;1.70;;;24.10;38.50;;;;;;5063260;28;20214;-52
2021/04/21 08:27:22;;;;;;;2.85;1.60;;;24.10;38.40;;;;;;5066399;28;20358;-54
2021/04/21 08:29:50;;;;;;;2.85;1.80;;;24.20;38.40;;;;;;5070402;28;20064;-54
2021/04/21 08:32:19;;;;;;;2.40;1.70;;;24.20;38.40;;;;;;5070342;28;20066;-54
2021/04/21 08:34:47;;;;;;;1.98;1.58;;;24.20;38.40;;;;;;5077767;28;20028;-53
2021/04/21 08:37:13;;;;;;;2.33;1.63;;;24.20;38.40;;;;;;5064054;28;20487;-53
2021/04/21 08:39:39;;;;;;;3.13;1.60;;;24.30;38.40;;;;;;5075666;28;20055;-53
2021/04/21 08:42:08;;;;;;;3.65;1.60;;;24.30;38.40;;;;;;5083949;28;20043;-52
2021/04/21 08:44:40;;;;;;;2.85;1.60;;;24.30;38.40;;;;;;5083413;28;20478;-51
2021/04/21 08:47:14;;;;;;;2.30;1.70;;;24.30;38.40;;;;;;5084582;28;20370;-51
2021/04/21 08:49:40;;;;;;;2.38;1.45;;;24.30;38.40;;;;;;5083188;28;20028;-49
2021/04/21 08:52:06;;;;;;;2.60;1.90;;;24.30;38.40;;;;;;5082875;28;20047;-53
2021/04/21 08:54:33;;;;;;;2.55;1.70;;;24.40;38.30;;;;;;5083509;28;20531;-55
2021/04/21 08:57:01;;;;;;;2.33;1.73;;;24.40;38.30;;;;;;5084641;28;20032;-53
2021/04/21 08:59:27;;;;;;;2.75;1.60;;;24.40;38.40;;;;;;5083182;28;20032;-53
2021/04/21 09:01:54;;;;;;;2.35;1.52;;;24.40;38.30;;;;;;5078163;28;20041;-52
2021/04/21 09:04:20;;;;;;;2.22;1.58;;;24.40;38.30;;;;;;5063434;28;20032;-54
2021/04/21 09:06:46;;;;;;;2.72;1.70;;;24.50;38.30;;;;;;5081999;28;20032;-57
2021/04/21 09:09:17;;;;;;;2.55;1.70;;;24.50;38.30;;;;;;5059934;28;20036;-54
2021/04/21 09:11:43;;;;;;;4.00;1.77;;;24.50;38.30;;;;;;5082805;28;20114;-53
2021/04/21 09:14:10;;;;;;;2.58;1.75;;;24.50;38.30;;;;;;5084029;28;20024;-56
2021/04/21 09:16:36;;;;;;;2.88;1.98;;;24.60;38.30;;;;;;5078442;28;20057;-56
2021/04/21 09:19:15;;;;;;;2.65;1.80;;;24.60;38.30;;;;;;5086325;28;20101;-56
2021/04/21 09:21:44;;;;;;;2.47;1.60;;;24.60;38.30;;;;;;5073575;28;20052;-57
2021/04/21 09:24:24;;;;;;;2.58;1.70;;;24.60;38.30;;;;;;5081864;28;20491;-51
2021/04/21 09:26:50;;;;;;;2.25;1.70;;;24.60;38.30;;;;;;5075888;28;20024;-53
2021/04/21 09:29:35;;;;;;;2.35;1.70;;;24.60;38.30;;;;;;5083171;28;20390;-53
2021/04/21 09:32:06;;;;;;;2.90;2.08;;;24.70;38.30;;;;;;5083219;28;20039;-53
2021/04/21 09:34:32;;;;;;;2.88;1.70;;;24.70;38.30;;;;;;5082406;28;20040;-57
2021/04/21 09:36:57;;;;;;;2.30;1.70;;;24.70;38.30;;;;;;5063963;28;20403;-56
2021/04/21 09:39:24;;;;;;;2.17;1.60;;;24.70;38.30;;;;;;5083467;28;20024;-58
2021/04/21 09:41:58;;;;;;;2.30;1.60;;;24.70;38.30;;;;;;5083848;28;20032;-51
2021/04/21 09:44:28;;;;;;;2.65;1.80;;;24.70;38.30;;;;;;5082657;28;20122;-58
2021/04/21 09:46:54;;;;;;;3.10;1.90;;;24.80;38.30;;;;;;5071094;28;20062;-53
2021/04/21 09:49:40;;;;;;;2.17;1.70;;;24.80;38.20;;;;;;5083766;28;20139;-57
2021/04/21 09:52:12;;;;;;;2.13;1.60;;;24.80;38.20;;;;;;5083032;28;20138;-52
2021/04/21 09:54:44;;;;;;;2.60;1.88;;;24.90;38.30;;;;;;5082594;28;20036;-56
2021/04/21 09:57:15;;;;;;;3.03;1.77;;;24.90;38.80;;;;;;5083311;28;20051;-52
2021/04/21 09:59:41;;;;;;;2.28;1.77;;;24.90;38.20;;;;;;5079971;28;20120;-53
2021/04/21 10:02:32;;;;;;;2.70;1.50;;;24.90;38.20;;;;;;5082935;28;20055;-57
2021/04/21 10:04:58;;;;;;;2.42;1.63;;;25.00;38.30;;;;;;5082314;28;20028;-50
2021/04/21 10:07:24;;;;;;;2.83;1.60;;;25.00;38.20;;;;;;5082869;28;20525;-55
2021/04/21 10:09:57;;;;;;;2.20;1.60;;;25.00;38.20;;;;;;5081849;28;20475;-53
2021/04/21 10:12:33;;;;;;;2.40;1.70;;;25.00;38.20;;;;;;5066112;28;20060;-55
2021/04/21 10:15:10;;;;;;;2.58;1.60;;;25.00;38.20;;;;;;5079408;28;20085;-56
2021/04/21 10:17:44;;;;;;;2.42;1.60;;;25.00;38.20;;;;;;5081584;28;20056;-56
2021/04/21 10:20:13;;;;;;;2.42;1.77;;;25.00;38.20;;;;;;5069206;28;20822;-48
2021/04/21 10:22:41;;;;;;;3.15;1.60;;;25.00;38.20;;;;;;5065035;28;20546;-54
2021/04/21 10:25:09;;;;;;;2.38;1.67;;;25.00;38.20;;;;;;5082423;28;20110;-58
2021/04/21 10:27:35;;;;;;;2.92;1.50;;;25.00;38.10;;;;;;5067201;28;20035;-55
2021/04/21 10:30:06;;;;;;;2.45;1.65;;;25.10;38.20;;;;;;5085949;28;20676;-53
2021/04/21 10:32:32;;;;;;;2.40;1.60;;;25.10;38.20;;;;;;5085342;28;20058;-55
2021/04/21 10:34:59;;;;;;;2.58;1.60;;;25.10;38.20;;;;;;5081645;28;20032;-55
2021/04/21 10:37:25;;;;;;;2.92;1.90;;;25.10;38.10;;;;;;5082360;28;20084;-57
2021/04/21 10:39:54;;;;;;;2.58;1.70;;;25.10;38.10;;;;;;5084470;28;20044;-52
2021/04/21 10:42:21;;;;;;;2.72;1.80;;;25.10;38.00;;;;;;5074555;28;20447;-55
2021/04/21 10:44:49;;;;;;;3.75;1.80;;;25.10;38.00;;;;;;5078160;28;20031;-53
2021/04/21 10:47:23;;;;;;;2.70;1.63;;;25.10;38.10;;;;;;5076937;28;20066;-53
2021/04/21 10:50:00;;;;;;;2.42;1.70;;;25.10;38.00;;;;;;5085761;28;20039;-57
2021/04/21 10:52:26;;;;;;;3.35;1.70;;;25.20;38.00;;;;;;5084446;28;20366;-55
2021/04/21 10:54:58;;;;;;;2.85;1.70;;;25.20;38.00;;;;;;5084607;28;20052;-52
2021/04/21 10:57:29;;;;;;;2.70;1.80;;;25.20;38.00;;;;;;5084848;28;20148;-53
2021/04/21 11:00:23;;;;;;;2.95;1.80;;;25.20;38.00;;;;;;5085225;28;20698;-52
2021/04/21 11:03:02;;;;;;;2.95;1.85;;;25.20;37.90;;;;;;5083383;28;20044;-56
2021/04/21 11:05:41;;;;;;;2.53;1.85;;;25.20;37.90;;;;;;5080458;28;20111;-54
2021/04/21 11:08:14;;;;;;;2.50;1.70;;;25.20;37.90;;;;;;5079439;28;20614;-55
2021/04/21 11:10:45;;;;;;;3.45;1.92;;;25.30;37.90;;;;;;5085191;28;20347;-57
2021/04/21 11:13:12;;;;;;;2.70;1.80;;;25.20;37.80;;;;;;5086348;28;20032;-53
2021/04/21 11:15:43;;;;;;;2.65;1.70;;;25.20;37.70;;;;;;5084852;28;20135;-55
2021/04/21 11:18:10;;;;;;;2.63;1.80;;;25.30;37.80;;;;;;5083360;28;20368;-51
2021/04/21 11:20:47;;;;;;;3.03;1.90;;;25.20;37.60;;;;;;5075932;28;20028;-53
2021/04/21 11:23:57;;;;;;;3.63;2.10;;;25.20;37.60;;;;;;5085511;28;20306;-55
2021/04/21 11:26:30;;;;;;;4.10;2.17;;;25.20;37.50;;;;;;5083350;28;20032;-54
2021/04/21 11:29:08;;;;;;;3.58;2.75;;;25.30;37.20;;;;;;5072637;28;20055;-55
2021/04/21 11:31:49;;;;;;;3.05;2.25;;;25.20;36.80;;;;;;5078400;28;20037;-57
2021/04/21 11:34:24;;;;;;;3.67;2.42;;;25.20;37.20;;;;;;5083579;28;20690;-52
2021/04/21 11:37:10;;;;;;;3.25;2.15;;;25.20;37.10;;;;;;5084836;28;20479;-57
2021/04/21 11:39:55;;;;;;;6.40;2.13;;;25.30;37.40;;;;;;5070848;28;20040;-51
2021/04/21 11:42:24;;;;;;;5.80;2.33;;;25.30;37.50;;;;;;5084596;28;20135;-52
2021/04/21 11:44:49;;;;;;;3.53;2.17;;;25.30;37.40;;;;;;5082496;28;20040;-57
2021/04/21 11:47:40;;;;;;;4.63;2.30;;;25.40;37.00;;;;;;5083935;28;20681;-55
2021/04/21 11:50:18;;;;;;;5.00;2.50;;;25.40;37.10;;;;;;5083861;28;20036;-59
2021/04/21 11:52:56;;;;;;;4.80;2.58;;;25.40;36.70;;;;;;5085038;28;20062;-55
2021/04/21 11:55:35;;;;;;;3.30;2.53;;;25.40;36.80;;;;;;5083881;28;20036;-59
2021/04/21 11:58:11;;;;;;;5.03;2.20;;;25.40;36.50;;;;;;5083869;28;20055;-56
2021/04/21 12:00:40;;;;;;;2.67;1.98;;;25.40;35.40;;;;;;5064290;28;20032;-53
2021/04/21 12:03:16;;;;;;;3.47;1.90;;;25.40;34.40;;;;;;5081275;28;20036;-57
2021/04/21 12:05:43;;;;;;;3.45;2.13;;;25.40;34.80;;;;;;5084091;28;20120;-57
2021/04/21 12:08:10;;;;;;;3.35;2.00;;;25.40;34.80;;;;;;5078625;28;20032;-56
2021/04/21 12:10:37;;;;;;;3.20;1.67;;;25.40;35.20;;;;;;5075004;28;20028;-55
2021/04/21 12:13:16;;;;;;;3.92;2.40;;;25.40;34.40;;;;;;5083170;28;20061;-55
2021/04/21 12:15:43;;;;;;;3.85;1.80;;;25.40;34.40;;;;;;5079615;28;20051;-56
2021/04/21 12:18:09;;;;;;;3.28;2.10;;;25.40;34.60;;;;;;5081568;28;20028;-57
2021/04/21 12:20:35;;;;;;;3.90;2.35;;;25.40;35.10;;;;;;5078801;28;20042;-57
2021/04/21 12:23:01;;;;;;;4.68;2.10;;;25.40;34.90;;;;;;5084577;28;20024;-54
2021/04/21 12:25:29;;;;;;;3.63;2.00;;;25.40;35.00;;;;;;5097401;28;20035;-53
2021/04/21 12:27:57;;;;;;;2.85;1.90;;;25.40;34.30;;;;;;5105634;28;20027;-55
2021/04/21 12:30:27;;;;;;;2.60;1.77;;;25.40;34.80;;;;;;5090641;28;20157;-53
2021/04/21 12:32:53;;;;;;;2.78;1.90;;;25.40;34.20;;;;;;5092263;28;20096;-56
2021/04/21 12:35:21;;;;;;;3.05;1.65;;;25.40;34.00;;;;;;5099454;28;20035;-54
2021/04/21 12:37:58;;;;;;;2.92;1.85;;;25.40;34.20;;;;;;5100502;28;20032;-57
2021/04/21 12:40:27;;;;;;;3.15;1.75;;;25.40;34.00;;;;;;5101784;28;20656;-56
2021/04/21 12:43:13;;;;;;;3.03;1.70;;;25.40;33.70;;;;;;5094858;28;20024;-57
2021/04/21 12:45:40;;;;;;;3.72;2.20;;;25.40;33.80;;;;;;5092049;28;20116;-54
2021/04/21 12:48:25;;;;;;;3.55;1.83;;;25.40;33.80;;;;;;5085438;28;20906;-53
2021/04/21 12:50:53;;;;;;;2.97;1.70;;;25.40;34.30;;;;;;5088699;28;20032;-54
2021/04/21 12:53:21;;;;;;;5.67;2.13;;;25.40;34.60;;;;;;5094941;28;20031;-56
2021/04/21 12:55:49;;;;;;;2.80;1.60;;;25.40;34.80;;;;;;5098453;28;20459;-57
2021/04/21 12:58:31;;;;;;;3.45;1.90;;;25.40;35.00;;;;;;5092846;28;20544;-59
2021/04/21 13:01:16;;;;;;;6.07;2.10;;;25.40;35.10;;;;;;5098899;28;20134;-54
2021/04/21 13:04:01;;;;;;;3.85;2.00;;;25.40;35.10;;;;;;5091913;28;20023;-54
2021/04/21 13:06:34;;;;;;;3.08;2.10;;;25.40;34.60;;;;;;5092910;28;20027;-54
2021/04/21 13:09:10;;;;;;;3.33;2.20;;;25.40;35.00;;;;;;5090782;28;20039;-53
2021/04/21 13:11:37;;;;;;;5.20;1.92;;;25.40;35.10;;;;;;5090595;28;20117;-53
2021/04/21 13:14:04;;;;;;;4.30;2.17;;;25.40;34.90;;;;;;5101387;28;20727;-56
2021/04/21 13:16:34;;;;;;;4.30;2.03;;;25.40;34.70;;;;;;5093879;28;20340;-57
2021/04/21 13:19:25;;;;;;;3.63;2.03;;;25.40;34.80;;;;;;5074659;28;20033;-54